sensor_id;sensor_type;location;lat;lon;timestamp;temperature;humidity
12568;DHT22;6349;50.904;6.136;2022-08-11T00:00:42;22.10;99.90
12568;DHT22;6349;50.904;6.136;2022-08-11T00:02:50;22.10;99.90
12568;DHT22;6349;50.904;6.136;2022-08-11T00:04:51;22.10;99.90
12568;DHT22;6349;50.904;6.136;2022-08-11T00:06:54;22.00;99.90
12568;DHT22;6349;50.904;6.136;2022-08-11T00:08:55;22.00;99.90
12568;DHT22;6349;50.904;6.136;2022-08-11T00:11:00;21.90;99.90
12568;DHT22;6349;50.904;6.136;2022-08-11T00:13:04;21.90;99.90
12568;DHT22;6349;50.904;6.136;2022-08-11T00:15:08;21.80;99.90
12568;DHT22;6349;50.904;6.136;2022-08-11T00:17:12;21.80;99.90
12568;DHT22;6349;50.904;6.136;2022-08-11T00:19:20;21.70;99.90
12568;DHT22;6349;50.904;6.136;2022-08-11T00:21:23;21.70;99.90
12568;DHT22;6349;50.904;6.136;2022-08-11T00:23:24;21.70;99.90
12568;DHT22;6349;50.904;6.136;2022-08-11T00:25:25;21.60;99.90
12568;DHT22;6349;50.904;6.136;2022-08-11T00:27:33;21.60;99.90
12568;DHT22;6349;50.904;6.136;2022-08-11T00:29:34;21.60;99.90
12568;DHT22;6349;50.904;6.136;2022-08-11T00:31:36;21.60;99.90
12568;DHT22;6349;50.904;6.136;2022-08-11T00:33:41;21.60;99.90
12568;DHT22;6349;50.904;6.136;2022-08-11T00:35:42;21.60;99.90
12568;DHT22;6349;50.904;6.136;2022-08-11T00:37:48;21.60;99.90
12568;DHT22;6349;50.904;6.136;2022-08-11T00:39:52;21.60;99.90
12568;DHT22;6349;50.904;6.136;2022-08-11T00:42:17;21.70;99.90
12568;DHT22;6349;50.904;6.136;2022-08-11T00:47:03;21.60;99.90
12568;DHT22;6349;50.904;6.136;2022-08-11T01:00:25;21.30;99.90
12568;DHT22;6349;50.904;6.136;2022-08-11T01:09:43;21.10;99.90
12568;DHT22;6349;50.904;6.136;2022-08-11T01:31:25;20.80;99.90
12568;DHT22;6349;50.904;6.136;2022-08-11T01:33:55;20.80;99.90
12568;DHT22;6349;50.904;6.136;2022-08-11T01:37:22;20.80;99.90
12568;DHT22;6349;50.904;6.136;2022-08-11T01:46:29;20.70;99.90
12568;DHT22;6349;50.904;6.136;2022-08-11T01:51:30;20.70;99.90
12568;DHT22;6349;50.904;6.136;2022-08-11T01:58:18;20.70;99.90
12568;DHT22;6349;50.904;6.136;2022-08-11T02:00:20;20.70;99.90
12568;DHT22;6349;50.904;6.136;2022-08-11T02:02:44;20.70;99.90
12568;DHT22;6349;50.904;6.136;2022-08-11T02:07:35;20.60;99.90
12568;DHT22;6349;50.904;6.136;2022-08-11T02:12:46;20.50;99.90
12568;DHT22;6349;50.904;6.136;2022-08-11T02:15:07;20.50;99.90
12568;DHT22;6349;50.904;6.136;2022-08-11T02:17:31;20.40;99.90
12568;DHT22;6349;50.904;6.136;2022-08-11T02:27:40;20.40;99.90
12568;DHT22;6349;50.904;6.136;2022-08-11T02:29:59;20.40;99.90
12568;DHT22;6349;50.904;6.136;2022-08-11T02:32:19;20.30;99.90
12568;DHT22;6349;50.904;6.136;2022-08-11T02:35:03;20.30;99.90
12568;DHT22;6349;50.904;6.136;2022-08-11T02:37:18;20.30;99.90
12568;DHT22;6349;50.904;6.136;2022-08-11T02:39:30;20.20;99.90
12568;DHT22;6349;50.904;6.136;2022-08-11T02:46:28;20.00;99.90
12568;DHT22;6349;50.904;6.136;2022-08-11T02:48:43;20.00;99.90
12568;DHT22;6349;50.904;6.136;2022-08-11T02:53:50;19.90;99.90
12568;DHT22;6349;50.904;6.136;2022-08-11T02:58:14;19.90;99.90
12568;DHT22;6349;50.904;6.136;2022-08-11T03:00:17;19.90;99.90
12568;DHT22;6349;50.904;6.136;2022-08-11T03:07:13;19.70;99.90
12568;DHT22;6349;50.904;6.136;2022-08-11T03:12:24;19.70;99.90
12568;DHT22;6349;50.904;6.136;2022-08-11T03:17:28;19.60;99.90
12568;DHT22;6349;50.904;6.136;2022-08-11T03:22:00;19.60;99.90
12568;DHT22;6349;50.904;6.136;2022-08-11T03:26:46;19.60;99.90
12568;DHT22;6349;50.904;6.136;2022-08-11T03:31:19;19.60;99.90
12568;DHT22;6349;50.904;6.136;2022-08-11T03:33:24;19.60;99.90
12568;DHT22;6349;50.904;6.136;2022-08-11T03:36:00;19.60;99.90
12568;DHT22;6349;50.904;6.136;2022-08-11T03:38:10;19.60;99.90
12568;DHT22;6349;50.904;6.136;2022-08-11T03:45:11;19.60;99.90
12568;DHT22;6349;50.904;6.136;2022-08-11T03:50:03;19.50;99.90
12568;DHT22;6349;50.904;6.136;2022-08-11T03:52:22;19.50;99.90
12568;DHT22;6349;50.904;6.136;2022-08-11T04:04:52;19.30;99.90
12568;DHT22;6349;50.904;6.136;2022-08-11T04:16:46;19.10;99.90
12568;DHT22;6349;50.904;6.136;2022-08-11T04:19:28;19.10;99.90
12568;DHT22;6349;50.904;6.136;2022-08-11T04:24:45;19.00;99.90
12568;DHT22;6349;50.904;6.136;2022-08-11T04:27:34;19.10;99.90
12568;DHT22;6349;50.904;6.136;2022-08-11T04:29:55;19.00;99.90
12568;DHT22;6349;50.904;6.136;2022-08-11T04:47:11;19.00;99.90
12568;DHT22;6349;50.904;6.136;2022-08-11T04:49:44;18.90;99.90
12568;DHT22;6349;50.904;6.136;2022-08-11T04:57:46;18.70;99.90
12568;DHT22;6349;50.904;6.136;2022-08-11T05:00:11;18.70;99.90
12568;DHT22;6349;50.904;6.136;2022-08-11T05:12:23;18.60;99.90
12568;DHT22;6349;50.904;6.136;2022-08-11T05:14:37;18.50;99.90
12568;DHT22;6349;50.904;6.136;2022-08-11T05:16:59;18.50;99.90
12568;DHT22;6349;50.904;6.136;2022-08-11T05:19:20;18.50;99.90
12568;DHT22;6349;50.904;6.136;2022-08-11T05:21:41;18.60;99.90
12568;DHT22;6349;50.904;6.136;2022-08-11T05:24:21;18.50;99.90
12568;DHT22;6349;50.904;6.136;2022-08-11T05:26:48;18.50;99.90
12568;DHT22;6349;50.904;6.136;2022-08-11T05:29:35;18.60;99.90
12568;DHT22;6349;50.904;6.136;2022-08-11T05:32:00;18.60;99.90
12568;DHT22;6349;50.904;6.136;2022-08-11T05:34:28;18.60;99.90
12568;DHT22;6349;50.904;6.136;2022-08-11T05:36:53;18.60;99.90
12568;DHT22;6349;50.904;6.136;2022-08-11T05:38:59;18.70;99.90
12568;DHT22;6349;50.904;6.136;2022-08-11T05:41:22;18.60;99.90
12568;DHT22;6349;50.904;6.136;2022-08-11T05:43:43;18.70;99.90
12568;DHT22;6349;50.904;6.136;2022-08-11T05:46:05;18.70;99.90
12568;DHT22;6349;50.904;6.136;2022-08-11T05:48:33;18.80;99.90
12568;DHT22;6349;50.904;6.136;2022-08-11T05:50:57;18.80;99.90
12568;DHT22;6349;50.904;6.136;2022-08-11T05:53:18;18.90;99.90
12568;DHT22;6349;50.904;6.136;2022-08-11T05:55:40;18.90;99.90
12568;DHT22;6349;50.904;6.136;2022-08-11T05:58:02;19.00;99.90
12568;DHT22;6349;50.904;6.136;2022-08-11T06:00:06;19.10;99.90
12568;DHT22;6349;50.904;6.136;2022-08-11T06:02:10;19.10;99.90
12568;DHT22;6349;50.904;6.136;2022-08-11T06:04:22;19.20;99.90
12568;DHT22;6349;50.904;6.136;2022-08-11T06:06:24;19.20;99.90
12568;DHT22;6349;50.904;6.136;2022-08-11T06:08:31;19.20;99.90
12568;DHT22;6349;50.904;6.136;2022-08-11T06:10:37;19.30;99.90
12568;DHT22;6349;50.904;6.136;2022-08-11T06:12:39;19.40;99.90
12568;DHT22;6349;50.904;6.136;2022-08-11T06:14:42;19.50;99.90
12568;DHT22;6349;50.904;6.136;2022-08-11T06:16:47;19.60;99.90
12568;DHT22;6349;50.904;6.136;2022-08-11T06:18:49;19.60;99.90
12568;DHT22;6349;50.904;6.136;2022-08-11T06:20:55;19.70;99.90
12568;DHT22;6349;50.904;6.136;2022-08-11T06:23:02;19.80;99.90
12568;DHT22;6349;50.904;6.136;2022-08-11T06:25:04;19.90;99.90
12568;DHT22;6349;50.904;6.136;2022-08-11T06:27:06;19.90;99.90
12568;DHT22;6349;50.904;6.136;2022-08-11T06:29:09;20.00;99.90
12568;DHT22;6349;50.904;6.136;2022-08-11T06:31:12;20.10;99.90
12568;DHT22;6349;50.904;6.136;2022-08-11T06:33:20;20.20;99.90
12568;DHT22;6349;50.904;6.136;2022-08-11T06:35:46;20.30;99.90
12568;DHT22;6349;50.904;6.136;2022-08-11T06:40:08;20.50;99.90
12568;DHT22;6349;50.904;6.136;2022-08-11T06:42:15;20.50;99.90
12568;DHT22;6349;50.904;6.136;2022-08-11T06:44:28;20.70;99.90
12568;DHT22;6349;50.904;6.136;2022-08-11T06:46:31;20.70;99.90
12568;DHT22;6349;50.904;6.136;2022-08-11T06:48:33;20.80;99.90
12568;DHT22;6349;50.904;6.136;2022-08-11T06:50:34;20.90;99.90
12568;DHT22;6349;50.904;6.136;2022-08-11T06:52:54;21.00;99.90
12568;DHT22;6349;50.904;6.136;2022-08-11T06:54:57;21.10;99.90
12568;DHT22;6349;50.904;6.136;2022-08-11T06:57:06;21.10;99.90
12568;DHT22;6349;50.904;6.136;2022-08-11T06:59:27;21.20;99.90
12568;DHT22;6349;50.904;6.136;2022-08-11T07:01:56;21.30;99.90
12568;DHT22;6349;50.904;6.136;2022-08-11T07:04:05;21.40;99.90
12568;DHT22;6349;50.904;6.136;2022-08-11T07:06:17;21.50;99.90
12568;DHT22;6349;50.904;6.136;2022-08-11T07:09:02;21.60;99.90
12568;DHT22;6349;50.904;6.136;2022-08-11T07:13:44;21.70;99.90
12568;DHT22;6349;50.904;6.136;2022-08-11T07:16:03;21.90;99.90
12568;DHT22;6349;50.904;6.136;2022-08-11T07:18:06;22.00;99.90
12568;DHT22;6349;50.904;6.136;2022-08-11T07:20:29;22.00;99.90
12568;DHT22;6349;50.904;6.136;2022-08-11T07:22:55;22.10;99.90
12568;DHT22;6349;50.904;6.136;2022-08-11T07:25:15;22.30;99.90
12568;DHT22;6349;50.904;6.136;2022-08-11T07:27:42;22.40;99.90
12568;DHT22;6349;50.904;6.136;2022-08-11T07:30:06;22.40;99.90
12568;DHT22;6349;50.904;6.136;2022-08-11T07:32:23;22.50;99.90
12568;DHT22;6349;50.904;6.136;2022-08-11T07:34:33;22.60;99.90
12568;DHT22;6349;50.904;6.136;2022-08-11T07:36:39;22.70;99.90
12568;DHT22;6349;50.904;6.136;2022-08-11T07:38:43;22.80;99.90
12568;DHT22;6349;50.904;6.136;2022-08-11T07:40:45;22.90;99.90
12568;DHT22;6349;50.904;6.136;2022-08-11T07:42:46;22.90;99.90
12568;DHT22;6349;50.904;6.136;2022-08-11T07:44:48;23.00;99.90
12568;DHT22;6349;50.904;6.136;2022-08-11T07:47:09;23.10;99.90
12568;DHT22;6349;50.904;6.136;2022-08-11T07:49:32;23.10;99.90
12568;DHT22;6349;50.904;6.136;2022-08-11T07:51:53;23.20;99.90
12568;DHT22;6349;50.904;6.136;2022-08-11T07:54:13;23.30;99.90
12568;DHT22;6349;50.904;6.136;2022-08-11T07:56:15;23.40;99.90
12568;DHT22;6349;50.904;6.136;2022-08-11T07:58:20;23.40;99.90
12568;DHT22;6349;50.904;6.136;2022-08-11T08:00:50;23.50;99.90
12568;DHT22;6349;50.904;6.136;2022-08-11T08:03:10;23.60;99.90
12568;DHT22;6349;50.904;6.136;2022-08-11T08:05:29;23.70;99.90
12568;DHT22;6349;50.904;6.136;2022-08-11T08:07:49;23.70;99.90
12568;DHT22;6349;50.904;6.136;2022-08-11T08:10:09;23.80;99.90
12568;DHT22;6349;50.904;6.136;2022-08-11T08:12:29;23.80;99.90
12568;DHT22;6349;50.904;6.136;2022-08-11T08:14:53;23.90;99.90
12568;DHT22;6349;50.904;6.136;2022-08-11T08:17:12;24.00;99.90
12568;DHT22;6349;50.904;6.136;2022-08-11T08:19:32;24.10;99.90
12568;DHT22;6349;50.904;6.136;2022-08-11T08:21:32;24.20;99.90
12568;DHT22;6349;50.904;6.136;2022-08-11T08:23:33;24.30;99.90
12568;DHT22;6349;50.904;6.136;2022-08-11T08:25:37;24.30;99.90
12568;DHT22;6349;50.904;6.136;2022-08-11T08:27:38;24.40;99.90
12568;DHT22;6349;50.904;6.136;2022-08-11T08:29:40;24.40;99.90
12568;DHT22;6349;50.904;6.136;2022-08-11T08:32:01;24.50;99.90
12568;DHT22;6349;50.904;6.136;2022-08-11T08:34:02;24.50;99.90
12568;DHT22;6349;50.904;6.136;2022-08-11T08:36:04;24.50;99.90
12568;DHT22;6349;50.904;6.136;2022-08-11T08:38:12;24.60;99.90
12568;DHT22;6349;50.904;6.136;2022-08-11T08:40:13;24.70;99.90
12568;DHT22;6349;50.904;6.136;2022-08-11T08:42:20;24.80;99.90
12568;DHT22;6349;50.904;6.136;2022-08-11T08:44:24;24.90;99.90
12568;DHT22;6349;50.904;6.136;2022-08-11T08:46:31;24.90;99.90
12568;DHT22;6349;50.904;6.136;2022-08-11T08:48:33;25.00;99.90
12568;DHT22;6349;50.904;6.136;2022-08-11T08:50:43;25.00;99.90
12568;DHT22;6349;50.904;6.136;2022-08-11T08:53:04;25.10;99.90
12568;DHT22;6349;50.904;6.136;2022-08-11T08:55:08;25.20;99.90
12568;DHT22;6349;50.904;6.136;2022-08-11T08:57:09;25.30;99.90
12568;DHT22;6349;50.904;6.136;2022-08-11T08:59:12;25.30;99.90
12568;DHT22;6349;50.904;6.136;2022-08-11T09:01:15;25.40;99.90
12568;DHT22;6349;50.904;6.136;2022-08-11T09:03:17;25.40;99.90
12568;DHT22;6349;50.904;6.136;2022-08-11T09:05:19;25.50;99.90
12568;DHT22;6349;50.904;6.136;2022-08-11T09:07:22;25.50;99.90
12568;DHT22;6349;50.904;6.136;2022-08-11T09:09:24;25.50;99.90
12568;DHT22;6349;50.904;6.136;2022-08-11T09:11:25;25.60;99.90
12568;DHT22;6349;50.904;6.136;2022-08-11T09:13:45;25.70;99.90
12568;DHT22;6349;50.904;6.136;2022-08-11T09:15:46;25.70;99.90
12568;DHT22;6349;50.904;6.136;2022-08-11T09:17:52;25.70;99.90
12568;DHT22;6349;50.904;6.136;2022-08-11T09:20:05;25.80;99.90
12568;DHT22;6349;50.904;6.136;2022-08-11T09:22:07;25.90;99.90
12568;DHT22;6349;50.904;6.136;2022-08-11T09:24:26;26.00;99.90
12568;DHT22;6349;50.904;6.136;2022-08-11T09:26:45;26.10;99.90
12568;DHT22;6349;50.904;6.136;2022-08-11T09:29:08;26.10;99.90
12568;DHT22;6349;50.904;6.136;2022-08-11T09:31:11;26.20;99.90
12568;DHT22;6349;50.904;6.136;2022-08-11T09:33:15;26.30;99.90
12568;DHT22;6349;50.904;6.136;2022-08-11T09:35:16;26.40;99.90
12568;DHT22;6349;50.904;6.136;2022-08-11T09:37:18;26.50;99.90
12568;DHT22;6349;50.904;6.136;2022-08-11T09:39:39;26.50;99.90
12568;DHT22;6349;50.904;6.136;2022-08-11T09:42:01;26.60;99.90
12568;DHT22;6349;50.904;6.136;2022-08-11T09:44:03;26.70;99.90
12568;DHT22;6349;50.904;6.136;2022-08-11T09:46:26;26.70;99.90
12568;DHT22;6349;50.904;6.136;2022-08-11T09:48:35;26.70;99.90
12568;DHT22;6349;50.904;6.136;2022-08-11T09:50:36;26.80;99.90
12568;DHT22;6349;50.904;6.136;2022-08-11T09:52:39;26.90;99.90
12568;DHT22;6349;50.904;6.136;2022-08-11T09:54:43;27.00;99.90
12568;DHT22;6349;50.904;6.136;2022-08-11T09:56:46;27.00;99.90
12568;DHT22;6349;50.904;6.136;2022-08-11T09:59:06;27.00;99.90
12568;DHT22;6349;50.904;6.136;2022-08-11T10:01:06;27.10;99.40
12568;DHT22;6349;50.904;6.136;2022-08-11T10:03:26;27.20;99.90
12568;DHT22;6349;50.904;6.136;2022-08-11T10:05:28;27.20;99.30
12568;DHT22;6349;50.904;6.136;2022-08-11T10:07:50;27.20;98.50
12568;DHT22;6349;50.904;6.136;2022-08-11T10:09:55;27.30;99.00
12568;DHT22;6349;50.904;6.136;2022-08-11T10:11:59;27.30;98.40
12568;DHT22;6349;50.904;6.136;2022-08-11T10:14:04;27.40;98.80
12568;DHT22;6349;50.904;6.136;2022-08-11T10:16:27;27.50;98.50
12568;DHT22;6349;50.904;6.136;2022-08-11T10:18:35;27.50;97.70
12568;DHT22;6349;50.904;6.136;2022-08-11T10:20:44;27.50;97.40
12568;DHT22;6349;50.904;6.136;2022-08-11T10:22:47;27.60;97.00
12568;DHT22;6349;50.904;6.136;2022-08-11T10:25:07;27.60;96.90
12568;DHT22;6349;50.904;6.136;2022-08-11T10:27:26;27.70;97.10
12568;DHT22;6349;50.904;6.136;2022-08-11T10:29:31;27.70;96.80
12568;DHT22;6349;50.904;6.136;2022-08-11T10:31:54;27.80;97.50
12568;DHT22;6349;50.904;6.136;2022-08-11T10:34:14;27.80;96.60
12568;DHT22;6349;50.904;6.136;2022-08-11T10:36:17;27.80;96.60
12568;DHT22;6349;50.904;6.136;2022-08-11T10:38:18;27.70;96.30
12568;DHT22;6349;50.904;6.136;2022-08-11T10:40:21;27.80;96.80
12568;DHT22;6349;50.904;6.136;2022-08-11T10:42:22;27.80;96.90
12568;DHT22;6349;50.904;6.136;2022-08-11T10:44:52;27.80;95.60
12568;DHT22;6349;50.904;6.136;2022-08-11T10:46:54;27.90;96.60
12568;DHT22;6349;50.904;6.136;2022-08-11T10:49:13;27.90;96.10
12568;DHT22;6349;50.904;6.136;2022-08-11T10:51:14;28.00;96.50
12568;DHT22;6349;50.904;6.136;2022-08-11T10:53:18;28.00;96.80
12568;DHT22;6349;50.904;6.136;2022-08-11T10:55:38;28.10;96.30
12568;DHT22;6349;50.904;6.136;2022-08-11T10:58:00;28.10;95.70
12568;DHT22;6349;50.904;6.136;2022-08-11T11:00:20;28.10;95.50
12568;DHT22;6349;50.904;6.136;2022-08-11T11:02:21;28.10;96.10
12568;DHT22;6349;50.904;6.136;2022-08-11T11:04:53;28.30;95.60
12568;DHT22;6349;50.904;6.136;2022-08-11T11:09:04;28.20;95.20
12568;DHT22;6349;50.904;6.136;2022-08-11T11:11:06;28.20;94.90
12568;DHT22;6349;50.904;6.136;2022-08-11T11:13:08;28.20;95.00
12568;DHT22;6349;50.904;6.136;2022-08-11T11:15:47;28.20;95.40
12568;DHT22;6349;50.904;6.136;2022-08-11T11:18:11;28.30;95.60
12568;DHT22;6349;50.904;6.136;2022-08-11T11:20:18;28.40;94.50
12568;DHT22;6349;50.904;6.136;2022-08-11T11:22:19;28.50;95.20
12568;DHT22;6349;50.904;6.136;2022-08-11T11:25:04;28.50;94.70
12568;DHT22;6349;50.904;6.136;2022-08-11T11:27:31;28.60;94.10
12568;DHT22;6349;50.904;6.136;2022-08-11T11:30:06;28.70;92.90
12568;DHT22;6349;50.904;6.136;2022-08-11T11:36:56;28.80;92.80
12568;DHT22;6349;50.904;6.136;2022-08-11T11:38:58;28.80;93.00
12568;DHT22;6349;50.904;6.136;2022-08-11T11:40:59;28.70;93.10
12568;DHT22;6349;50.904;6.136;2022-08-11T11:43:18;28.70;93.50
12568;DHT22;6349;50.904;6.136;2022-08-11T11:45:21;28.80;93.30
12568;DHT22;6349;50.904;6.136;2022-08-11T11:47:23;28.80;93.40
12568;DHT22;6349;50.904;6.136;2022-08-11T11:49:27;28.80;93.20
12568;DHT22;6349;50.904;6.136;2022-08-11T11:51:28;28.90;93.30
12568;DHT22;6349;50.904;6.136;2022-08-11T11:53:30;28.90;92.90
12568;DHT22;6349;50.904;6.136;2022-08-11T11:55:31;29.00;93.20
12568;DHT22;6349;50.904;6.136;2022-08-11T11:57:32;29.10;93.50
12568;DHT22;6349;50.904;6.136;2022-08-11T11:59:52;29.20;93.20
12568;DHT22;6349;50.904;6.136;2022-08-11T12:02:14;29.20;92.90
12568;DHT22;6349;50.904;6.136;2022-08-11T12:04:15;29.20;93.40
12568;DHT22;6349;50.904;6.136;2022-08-11T12:06:20;29.20;92.60
12568;DHT22;6349;50.904;6.136;2022-08-11T12:08:23;29.30;92.10
12568;DHT22;6349;50.904;6.136;2022-08-11T12:10:24;29.40;93.00
12568;DHT22;6349;50.904;6.136;2022-08-11T12:12:26;29.40;92.80
12568;DHT22;6349;50.904;6.136;2022-08-11T12:14:46;29.40;92.90
12568;DHT22;6349;50.904;6.136;2022-08-11T12:16:47;29.50;92.40
12568;DHT22;6349;50.904;6.136;2022-08-11T12:18:54;29.50;92.00
12568;DHT22;6349;50.904;6.136;2022-08-11T12:20:55;29.70;92.90
12568;DHT22;6349;50.904;6.136;2022-08-11T12:22:56;29.70;92.30
12568;DHT22;6349;50.904;6.136;2022-08-11T12:25:16;29.90;92.30
12568;DHT22;6349;50.904;6.136;2022-08-11T12:27:36;29.80;91.30
12568;DHT22;6349;50.904;6.136;2022-08-11T12:29:39;29.90;91.90
12568;DHT22;6349;50.904;6.136;2022-08-11T12:31:40;29.80;90.60
12568;DHT22;6349;50.904;6.136;2022-08-11T12:33:42;29.80;91.00
12568;DHT22;6349;50.904;6.136;2022-08-11T12:35:44;29.70;91.00
12568;DHT22;6349;50.904;6.136;2022-08-11T12:37:52;29.80;90.60
12568;DHT22;6349;50.904;6.136;2022-08-11T12:40:08;29.80;90.60
12568;DHT22;6349;50.904;6.136;2022-08-11T12:42:32;29.70;90.70
12568;DHT22;6349;50.904;6.136;2022-08-11T12:44:53;29.80;90.80
12568;DHT22;6349;50.904;6.136;2022-08-11T12:47:18;29.90;90.20
12568;DHT22;6349;50.904;6.136;2022-08-11T12:49:19;29.90;89.90
12568;DHT22;6349;50.904;6.136;2022-08-11T12:51:41;29.90;87.00
12568;DHT22;6349;50.904;6.136;2022-08-11T12:54:00;29.80;90.30
12568;DHT22;6349;50.904;6.136;2022-08-11T12:56:03;30.00;90.80
12568;DHT22;6349;50.904;6.136;2022-08-11T12:58:25;30.00;87.90
12568;DHT22;6349;50.904;6.136;2022-08-11T13:00:27;30.00;89.60
12568;DHT22;6349;50.904;6.136;2022-08-11T13:02:48;30.10;90.60
12568;DHT22;6349;50.904;6.136;2022-08-11T13:05:11;30.10;89.40
12568;DHT22;6349;50.904;6.136;2022-08-11T13:07:13;30.20;89.70
12568;DHT22;6349;50.904;6.136;2022-08-11T13:09:15;30.20;90.30
12568;DHT22;6349;50.904;6.136;2022-08-11T13:11:16;30.30;89.60
12568;DHT22;6349;50.904;6.136;2022-08-11T13:13:37;30.30;88.80
12568;DHT22;6349;50.904;6.136;2022-08-11T13:15:39;30.30;90.80
12568;DHT22;6349;50.904;6.136;2022-08-11T13:17:40;30.40;88.10
12568;DHT22;6349;50.904;6.136;2022-08-11T13:19:42;30.40;90.00
12568;DHT22;6349;50.904;6.136;2022-08-11T13:21:43;30.50;90.00
12568;DHT22;6349;50.904;6.136;2022-08-11T13:23:46;30.50;90.20
12568;DHT22;6349;50.904;6.136;2022-08-11T13:25:47;30.50;90.10
12568;DHT22;6349;50.904;6.136;2022-08-11T13:27:50;30.50;89.00
12568;DHT22;6349;50.904;6.136;2022-08-11T13:29:52;30.50;88.60
12568;DHT22;6349;50.904;6.136;2022-08-11T13:32:14;30.60;89.00
12568;DHT22;6349;50.904;6.136;2022-08-11T13:34:16;30.60;89.00
12568;DHT22;6349;50.904;6.136;2022-08-11T13:36:20;30.50;88.40
12568;DHT22;6349;50.904;6.136;2022-08-11T13:38:23;30.50;87.00
12568;DHT22;6349;50.904;6.136;2022-08-11T13:40:25;30.50;87.50
12568;DHT22;6349;50.904;6.136;2022-08-11T13:42:26;30.50;88.10
12568;DHT22;6349;50.904;6.136;2022-08-11T13:44:29;30.50;88.90
12568;DHT22;6349;50.904;6.136;2022-08-11T13:46:31;30.60;89.00
12568;DHT22;6349;50.904;6.136;2022-08-11T13:48:33;30.70;88.50
12568;DHT22;6349;50.904;6.136;2022-08-11T13:50:35;30.70;89.10
12568;DHT22;6349;50.904;6.136;2022-08-11T13:53:02;30.80;89.20
12568;DHT22;6349;50.904;6.136;2022-08-11T13:55:04;30.90;89.30
12568;DHT22;6349;50.904;6.136;2022-08-11T13:57:07;31.00;87.50
12568;DHT22;6349;50.904;6.136;2022-08-11T13:59:09;31.00;87.30
12568;DHT22;6349;50.904;6.136;2022-08-11T14:01:10;30.90;88.30
12568;DHT22;6349;50.904;6.136;2022-08-11T14:03:12;30.90;87.30
12568;DHT22;6349;50.904;6.136;2022-08-11T14:05:24;31.00;85.60
12568;DHT22;6349;50.904;6.136;2022-08-11T14:07:31;31.00;87.90
12568;DHT22;6349;50.904;6.136;2022-08-11T14:09:36;31.00;88.40
12568;DHT22;6349;50.904;6.136;2022-08-11T14:11:40;31.00;88.50
12568;DHT22;6349;50.904;6.136;2022-08-11T14:14:18;31.10;87.10
12568;DHT22;6349;50.904;6.136;2022-08-11T14:16:30;31.20;87.50
12568;DHT22;6349;50.904;6.136;2022-08-11T14:18:31;31.30;86.20
12568;DHT22;6349;50.904;6.136;2022-08-11T14:20:35;31.20;86.70
12568;DHT22;6349;50.904;6.136;2022-08-11T14:22:55;31.20;86.10
12568;DHT22;6349;50.904;6.136;2022-08-11T14:24:57;31.30;87.00
12568;DHT22;6349;50.904;6.136;2022-08-11T14:26:58;31.20;86.30
12568;DHT22;6349;50.904;6.136;2022-08-11T14:29:04;31.30;85.80
12568;DHT22;6349;50.904;6.136;2022-08-11T14:31:06;31.30;86.50
12568;DHT22;6349;50.904;6.136;2022-08-11T14:33:07;31.40;86.50
12568;DHT22;6349;50.904;6.136;2022-08-11T14:35:08;31.40;84.90
12568;DHT22;6349;50.904;6.136;2022-08-11T14:37:18;31.40;83.90
12568;DHT22;6349;50.904;6.136;2022-08-11T14:39:31;31.40;86.40
12568;DHT22;6349;50.904;6.136;2022-08-11T14:41:35;31.60;86.70
12568;DHT22;6349;50.904;6.136;2022-08-11T14:43:56;31.70;84.10
12568;DHT22;6349;50.904;6.136;2022-08-11T14:46:16;31.70;83.90
12568;DHT22;6349;50.904;6.136;2022-08-11T14:48:36;31.80;85.20
12568;DHT22;6349;50.904;6.136;2022-08-11T14:50:37;31.80;83.20
12568;DHT22;6349;50.904;6.136;2022-08-11T14:52:52;31.70;82.50
12568;DHT22;6349;50.904;6.136;2022-08-11T14:54:54;31.60;84.30
12568;DHT22;6349;50.904;6.136;2022-08-11T14:57:17;31.80;82.50
12568;DHT22;6349;50.904;6.136;2022-08-11T14:59:20;31.80;83.10
12568;DHT22;6349;50.904;6.136;2022-08-11T15:01:21;31.90;83.60
12568;DHT22;6349;50.904;6.136;2022-08-11T15:03:40;32.00;83.10
12568;DHT22;6349;50.904;6.136;2022-08-11T15:07:45;32.20;81.90
12568;DHT22;6349;50.904;6.136;2022-08-11T15:09:46;32.30;83.30
12568;DHT22;6349;50.904;6.136;2022-08-11T15:11:47;32.30;81.70
12568;DHT22;6349;50.904;6.136;2022-08-11T15:14:08;32.20;80.20
12568;DHT22;6349;50.904;6.136;2022-08-11T15:16:09;32.10;80.30
12568;DHT22;6349;50.904;6.136;2022-08-11T15:18:28;32.10;82.40
12568;DHT22;6349;50.904;6.136;2022-08-11T15:20:29;32.20;82.20
12568;DHT22;6349;50.904;6.136;2022-08-11T15:22:49;32.20;79.00
12568;DHT22;6349;50.904;6.136;2022-08-11T15:25:08;32.20;80.90
12568;DHT22;6349;50.904;6.136;2022-08-11T15:27:14;32.10;80.70
12568;DHT22;6349;50.904;6.136;2022-08-11T15:29:36;32.10;82.70
12568;DHT22;6349;50.904;6.136;2022-08-11T15:31:56;32.10;80.80
12568;DHT22;6349;50.904;6.136;2022-08-11T15:34:20;32.00;79.90
12568;DHT22;6349;50.904;6.136;2022-08-11T15:36:41;32.00;82.10
12568;DHT22;6349;50.904;6.136;2022-08-11T15:39:18;32.00;80.40
12568;DHT22;6349;50.904;6.136;2022-08-11T15:41:20;32.00;82.40
12568;DHT22;6349;50.904;6.136;2022-08-11T15:43:45;32.10;81.30
12568;DHT22;6349;50.904;6.136;2022-08-11T15:46:19;32.10;79.20
12568;DHT22;6349;50.904;6.136;2022-08-11T15:48:33;32.00;79.70
12568;DHT22;6349;50.904;6.136;2022-08-11T15:50:40;32.00;77.90
12568;DHT22;6349;50.904;6.136;2022-08-11T15:52:52;32.00;79.70
12568;DHT22;6349;50.904;6.136;2022-08-11T15:54:54;32.00;79.70
12568;DHT22;6349;50.904;6.136;2022-08-11T15:56:58;31.90;77.40
12568;DHT22;6349;50.904;6.136;2022-08-11T15:59:02;31.90;79.40
12568;DHT22;6349;50.904;6.136;2022-08-11T16:01:24;31.90;80.30
12568;DHT22;6349;50.904;6.136;2022-08-11T16:03:53;32.00;79.10
12568;DHT22;6349;50.904;6.136;2022-08-11T16:06:13;32.10;79.70
12568;DHT22;6349;50.904;6.136;2022-08-11T16:08:16;32.30;80.30
12568;DHT22;6349;50.904;6.136;2022-08-11T16:10:19;32.40;77.90
12568;DHT22;6349;50.904;6.136;2022-08-11T16:12:25;32.40;78.70
12568;DHT22;6349;50.904;6.136;2022-08-11T16:14:32;32.40;79.30
12568;DHT22;6349;50.904;6.136;2022-08-11T16:16:53;32.50;77.90
12568;DHT22;6349;50.904;6.136;2022-08-11T16:18:57;32.50;78.10
12568;DHT22;6349;50.904;6.136;2022-08-11T16:21:01;32.50;78.20
12568;DHT22;6349;50.904;6.136;2022-08-11T16:23:04;32.40;77.80
12568;DHT22;6349;50.904;6.136;2022-08-11T16:25:11;32.40;75.70
12568;DHT22;6349;50.904;6.136;2022-08-11T16:27:13;32.30;76.50
12568;DHT22;6349;50.904;6.136;2022-08-11T16:29:18;32.30;78.00
12568;DHT22;6349;50.904;6.136;2022-08-11T16:31:21;32.30;76.80
12568;DHT22;6349;50.904;6.136;2022-08-11T16:33:24;32.40;78.80
12568;DHT22;6349;50.904;6.136;2022-08-11T16:35:26;32.40;77.80
12568;DHT22;6349;50.904;6.136;2022-08-11T16:37:47;32.40;78.60
12568;DHT22;6349;50.904;6.136;2022-08-11T16:40:08;32.30;77.70
12568;DHT22;6349;50.904;6.136;2022-08-11T16:42:10;32.30;78.70
12568;DHT22;6349;50.904;6.136;2022-08-11T16:44:30;32.40;78.40
12568;DHT22;6349;50.904;6.136;2022-08-11T16:46:50;32.40;78.60
12568;DHT22;6349;50.904;6.136;2022-08-11T16:49:05;32.30;77.80
12568;DHT22;6349;50.904;6.136;2022-08-11T16:51:07;32.40;76.20
12568;DHT22;6349;50.904;6.136;2022-08-11T16:53:10;32.40;77.80